Other Surface Observations
Issued by NWS Missoula, MT

Home | Current Version | Previous Version | Text Only | Print | Product List | Glossary On
Versions: 1 2 3 4 5 6 7 8 9 10 11 12 13 14 15 16 17 18 19 20 21 22 23 24 25 26 27 28 29 30 31 32 33 34 35 36 37 38 39 40 41 42 43 44 45 46 47 48 49 50
000
SXUS55 KMSO 301644
OSOMSO
MONTANA AWOS SUMMARY
NATIONAL WEATHER SERVICE MISSOULA MT
1043 AM MDT TUE JUN 30 2015

Montana AWOS Reports

MALTA       |KM75 301635Z AUTO 25010KT 5SM HZ 29/13 A2983 RMK AO1 T02890133
LAUREL      |K6S8 301635Z AUTO 17004KT 25SM 27/15 A3000 RMK AO1 T02720150
TWIN BRIDGES|K7S1 301635Z AUTO 18005KT 40SM 24/14 A3014 RMK AO1 T02440144
ROUNDUP     |KRPX 301635Z AUTO 21004KT 40SM 30/12 A2989 RMK AO1 T03000122




USA.gov is the U.S. government's official web portal to all federal, state and local government web resources and services.